• Join FlightAware (Why Join?)
  • Login
  • US Flag 
07:48PM EST


 

Airport Tracker/Info


-or-


 

Live Flight TrackerFlight Track Log ✈ N960DL ✈ 25-Apr-2013 ✈ KATL - KRIC

Flight Track Log - Related Links

Times and Time Zones

All times are in EDT time to prevent confusion due to time zone crossing. See the N960DL flight status page for this flight to view local times or setup timezone preferences in your user account.

Time Position Orientation Groundspeed Altitude Reporting Facility
EDT Latitude Longitude Course Direction KTS MPH feet Rate Location/Type
07:32AM 33.6333 -84.4667 53° Northeast 182 209 2,600  Level Atlanta TRACON
07:33AM 33.6167 -84.5333 253° West 243 280 6,200 2,880 Climbing Atlanta TRACON
07:34AM 33.5069 -84.5869 202° Southwest 277 319 10,000 1,740 Climbing Atlanta Center
07:35AM 33.8264 -83.8506 54° Northeast  Level FlightAware Approximate
07:35AM 33.4531 -84.5144 132° Southeast 275 316 10,900  Level Atlanta Center
07:36AM 33.9072 -83.7293 48° Northeast  Level FlightAware Approximate
07:36AM 33.4556 -84.3875 89° East 312 359 13,000  Level Atlanta Center
07:37AM 33.9859 -83.6057 53° Northeast  Level FlightAware Approximate
07:37AM 33.4914 -84.2581 72° East 354 407 16,000  Level Atlanta Center
07:38AM 33.5939 -84.1883 30° Northeast 367 422 18,400 2,460 Climbing Atlanta Center
07:39AM 33.6983 -84.1186 29° Northeast 397 457 21,000 2,280 Climbing Atlanta Center
07:40AM 33.7817 -84.0064 48° Northeast 427 491 23,000 1,740 Climbing Atlanta Center
07:41AM 33.8525 -83.8711 58° Northeast 459 528 24,500 960 Climbing Atlanta Center
07:42AM 33.9253 -83.7308 58° Northeast 483 556 25,000 600 Climbing Atlanta Center
07:43AM 34.0064 -83.6003 53° Northeast 488 562 25,800 1,200 Climbing Atlanta Center
07:44AM 34.0914 -83.4644 53° Northeast 497 572 27,400 1,620 Climbing Atlanta Center
07:45AM 34.1700 -83.3408 52° Northeast 503 579 29,100 1,800 Climbing Atlanta Center
07:46AM 34.2547 -83.2044 53° Northeast 513 590 31,100 1,800 Climbing Atlanta Center
07:47AM 34.3372 -83.0703 53° Northeast 503 579 32,800 900 Climbing Atlanta Center
07:48AM 34.4217 -82.9333 53° Northeast 503 579 33,000 60 Climbing Atlanta Center
07:49AM 34.5081 -82.7986 52° Northeast 509 586 33,000  Level Atlanta Center
07:50AM 34.5836 -82.6586 57° Northeast 502 578 33,000  Level Atlanta Center
07:51AM 34.6697 -82.5258 52° Northeast 495 570 33,000  Level Atlanta Center
07:52AM 34.7558 -82.3878 53° Northeast 500 575 33,000  Level Atlanta Center
07:53AM 34.8372 -82.2494 54° Northeast 500 575 33,000  Level Atlanta Center
07:54AM 34.9169 -82.1314 51° Northeast 500 575 33,000  Level Atlanta Center
07:55AM 35.0142 -81.9642 55° Northeast 500 575 33,000  Level Atlanta Center
07:56AM 35.0911 -81.8178 57° Northeast 510 587 33,000  Level Atlanta Center
07:57AM 35.1675 -81.6683 58° Northeast 510 587 33,000  Level Atlanta Center
07:58AM 35.2461 -81.5236 56° Northeast 510 587 33,000  Level Atlanta Center
07:59AM 35.3242 -81.3761 57° Northeast 510 587 33,000  Level Atlanta Center
08:00AM 35.3981 -81.2261 59° Northeast 510 587 33,000  Level Atlanta Center
08:01AM 35.4761 -81.0781 57° Northeast 515 593 33,000  Level Atlanta Center
08:02AM 35.5539 -80.9322 57° Northeast 520 598 33,000  Level Atlanta Center
08:03AM 35.6314 -80.7861 57° Northeast 514 592 33,000  Level Atlanta Center
08:05AM 35.7733 -80.5075 58° Northeast 506 582 33,000  Level Washington Center
08:06AM 35.8506 -80.3558 58° Northeast 506 582 33,000 -480 Level Washington Center
08:07AM 35.9250 -80.2092 58° Northeast 506 582 32,100 -1,800 Descending Washington Center
08:08AM 36.0081 -80.0547 56° Northeast 506 582 29,500 -1,560 Descending Washington Center
08:09AM 36.0867 -79.9050 57° Northeast 501 577 29,000 -300 Descending Washington Center
08:10AM 36.1692 -79.7578 55° Northeast 507 583 29,000 -180 Level Washington Center
08:11AM 36.2514 -79.6125 55° Northeast 512 589 28,700 -1,020 Descending Washington Center
08:12AM 36.3311 -79.4722 55° Northeast 512 589 27,000 -1,620 Descending Washington Center
08:13AM 36.4019 -79.3417 56° Northeast 507 583 25,500 -1,560 Descending Washington Center
08:14AM 36.4814 -79.2008 55° Northeast 497 572 23,900 -1,260 Descending Washington Center
08:15AM 36.5694 -79.0497 54° Northeast 497 572 23,000 -840 Descending Washington Center
08:16AM 36.6375 -78.9258 56° Northeast 491 565 22,300 -960 Descending Washington Center
08:17AM 36.7211 -78.7714 56° Northeast 491 565 21,100 -1,140 Descending Washington Center
08:18AM 36.7889 -78.6472 56° Northeast 491 565 20,100 -960 Descending Washington Center
08:19AM 36.8633 -78.5125 55° Northeast 478 550 19,200 -1,260 Descending Washington Center
08:20AM 36.9308 -78.3850 56° Northeast 464 534 17,600 -2,040 Descending Washington Center
08:21AM 37.0006 -78.2603 55° Northeast 446 513 15,200 -2,280 Descending Washington Center
08:22AM 37.0636 -78.1425 56° Northeast 425 489 13,100 -2,280 Descending Washington Center
08:23AM 37.1331 -78.0147 56° Northeast 405 466 10,700 -1,560 Descending Washington Center
08:24AM 37.1872 -77.9147 56° Northeast 383 441 10,000 -660 Descending Washington Center
08:25AM 37.2347 -77.8197 58° Northeast 343 395 9,400 -1,200 Descending Washington Center
08:26AM 37.2783 -77.7294 59° Northeast 318 366 7,700 -1,680 Descending Washington Center
08:27AM 37.3114 -77.6261 68° East 304 350 6,100 -1,380 Descending Washington Center
08:28AM 37.3419 -77.5353 67° East 296 341 5,000 -1,140 Descending Washington Center
08:29AM 37.3683 -77.4497 69° East 275 316 3,900 -960 Descending Washington Center
08:30AM 37.3903 -77.3744 70° East 248 285 3,100 -840 Descending Washington Center